Time;durP1;ratioP1;P1;durP2;ratioP2;P2;SDS_P1;SDS_P2;PMS_P1;PMS_P2;Temp;Humidity;BMP_temperature;BMP_pressure;BME280_temperature;BME280_humidity;BME280_pressure;Samples;Min_cycle;Max_cycle;Signal;HPM_P1;HPM_P2
2024/04/18 00:00:54;;;;;;;12.60;2.65;;;;;;;;;;5340129;26;20016;-73
2024/04/18 00:03:21;;;;;;;14.10;2.17;;;;;;;;;;5338472;26;20086;-73
2024/04/18 00:05:48;;;;;;;8.98;1.45;;;;;;;;;;5340051;26;19997;-73
2024/04/18 00:08:14;;;;;;;7.07;2.10;;;;;;;;;;5340099;26;20012;-74
2024/04/18 00:10:43;;;;;;;6.55;1.70;;;;;;;;;;5340062;26;20001;-74
2024/04/18 00:13:10;;;;;;;7.65;2.22;;;;;;;;;;5340454;26;20033;-74
2024/04/18 00:15:38;;;;;;;9.38;2.17;;;;;;;;;;5339852;26;20052;-74
2024/04/18 00:18:04;;;;;;;7.40;2.15;;;;;;;;;;5339969;26;20000;-74
2024/04/18 00:20:31;;;;;;;13.98;2.42;;;;;;;;;;5339927;26;20001;-74
2024/04/18 00:22:58;;;;;;;10.15;1.77;;;;;;;;;;5340801;26;20001;-73
2024/04/18 00:25:25;;;;;;;6.18;1.83;;;;;;;;;;5339415;26;20016;-74
2024/04/18 00:27:52;;;;;;;6.72;1.38;;;;;;;;;;5339731;26;20020;-74
2024/04/18 00:30:19;;;;;;;6.40;1.20;;;;;;;;;;5339536;26;20008;-74
2024/04/18 00:32:46;;;;;;;7.15;1.75;;;;;;;;;;5338562;26;20005;-74
2024/04/18 00:35:13;;;;;;;5.70;1.50;;;;;;;;;;5339404;26;20083;-74
2024/04/18 00:37:39;;;;;;;12.75;1.90;;;;;;;;;;5339702;26;20019;-74
2024/04/18 00:40:06;;;;;;;10.45;1.70;;;;;;;;;;5338235;26;20341;-74
2024/04/18 00:42:33;;;;;;;5.45;1.80;;;;;;;;;;5339195;26;20005;-77
2024/04/18 00:45:00;;;;;;;9.02;1.80;;;;;;;;;;5340654;26;20005;-74
2024/04/18 00:47:28;;;;;;;6.03;1.40;;;;;;;;;;5339040;26;20001;-74
2024/04/18 00:49:56;;;;;;;10.97;2.10;;;;;;;;;;5338106;26;20392;-74
2024/04/18 00:52:22;;;;;;;6.35;1.73;;;;;;;;;;5338796;26;20388;-74
2024/04/18 00:54:50;;;;;;;9.43;1.85;;;;;;;;;;5339902;26;20462;-73
2024/04/18 00:57:18;;;;;;;7.53;1.80;;;;;;;;;;5339599;26;20017;-73
2024/04/18 00:59:46;;;;;;;10.98;2.72;;;;;;;;;;5339999;26;20001;-73
2024/04/18 01:02:13;;;;;;;;;;;;;;;;;;5338385;26;20001;-74
2024/04/18 01:04:41;;;;;;;11.93;2.13;;;;;;;;;;5339064;26;19934;-73
2024/04/18 01:07:08;;;;;;;11.55;2.20;;;;;;;;;;5337884;26;20036;-73
2024/04/18 01:09:34;;;;;;;8.50;2.30;;;;;;;;;;5339891;26;20004;-74
2024/04/18 01:12:02;;;;;;;11.02;1.85;;;;;;;;;;5339380;26;20005;-74
2024/04/18 01:14:29;;;;;;;10.68;1.83;;;;;;;;;;5339192;26;20008;-74
2024/04/18 01:16:56;;;;;;;11.00;1.63;;;;;;;;;;5339204;26;20512;-77
2024/04/18 01:19:23;;;;;;;7.68;1.73;;;;;;;;;;5339229;26;20000;-76
2024/04/18 01:21:50;;;;;;;13.07;2.40;;;;;;;;;;5339488;26;20005;-73
2024/04/18 01:24:18;;;;;;;13.18;2.60;;;;;;;;;;5339286;26;20009;-74
2024/04/18 01:26:45;;;;;;;10.82;2.53;;;;;;;;;;5338441;26;20078;-74
2024/04/18 01:29:12;;;;;;;10.90;1.98;;;;;;;;;;5338906;26;20037;-74
2024/04/18 01:31:38;;;;;;;16.63;3.35;;;;;;;;;;5338608;26;20474;-74
2024/04/18 01:34:05;;;;;;;16.35;2.70;;;;;;;;;;5339353;26;20016;-74
2024/04/18 01:36:32;;;;;;;18.42;2.78;;;;;;;;;;5336681;26;20451;-74
2024/04/18 01:38:59;;;;;;;27.85;2.65;;;;;;;;;;5339511;26;20429;-74
2024/04/18 01:41:26;;;;;;;17.02;2.90;;;;;;;;;;5337981;26;20593;-76
2024/04/18 01:43:53;;;;;;;10.00;2.15;;;;;;;;;;5339771;26;20001;-74
2024/04/18 01:46:19;;;;;;;12.30;2.08;;;;;;;;;;5336547;26;20005;-74
2024/04/18 01:48:46;;;;;;;16.27;2.67;;;;;;;;;;5338691;26;20580;-74
2024/04/18 01:51:13;;;;;;;18.85;2.20;;;;;;;;;;5338161;26;20036;-74
2024/04/18 01:53:40;;;;;;;18.98;1.90;;;;;;;;;;5338851;26;20063;-74
2024/04/18 01:56:07;;;;;;;11.50;1.67;;;;;;;;;;5338664;26;20015;-74
2024/04/18 01:58:33;;;;;;;14.60;2.10;;;;;;;;;;5338805;26;20459;-74
2024/04/18 02:01:00;;;;;;;12.23;2.67;;;;;;;;;;5338169;26;20005;-74
2024/04/18 02:03:27;;;;;;;8.63;1.98;;;;;;;;;;5336899;26;20450;-74
2024/04/18 02:05:54;;;;;;;16.92;2.13;;;;;;;;;;5338683;26;20000;-74
2024/04/18 02:08:21;;;;;;;14.15;1.80;;;;;;;;;;5338193;26;20020;-74
2024/04/18 02:10:49;;;;;;;12.95;1.67;;;;;;;;;;5338317;26;20012;-74
2024/04/18 02:13:16;;;;;;;10.05;1.92;;;;;;;;;;5338840;26;20001;-74
2024/04/18 02:15:43;;;;;;;15.32;2.17;;;;;;;;;;5338057;26;20001;-74
2024/04/18 02:18:10;;;;;;;18.00;1.65;;;;;;;;;;5338915;26;20005;-76
2024/04/18 02:20:37;;;;;;;10.85;1.70;;;;;;;;;;5338070;26;20024;-76
2024/04/18 02:23:04;;;;;;;11.95;1.88;;;;;;;;;;5338335;26;20572;-76
2024/04/18 02:25:31;;;;;;;12.77;1.67;;;;;;;;;;5338021;26;20454;-74
2024/04/18 02:27:57;;;;;;;13.75;2.15;;;;;;;;;;5338224;26;20005;-76
2024/04/18 02:30:24;;;;;;;8.90;1.42;;;;;;;;;;5338036;26;20025;-76
2024/04/18 02:32:53;;;;;;;14.88;2.08;;;;;;;;;;5338252;26;20005;-75
2024/04/18 02:35:20;;;;;;;12.50;1.70;;;;;;;;;;5338114;26;20020;-74
2024/04/18 02:37:46;;;;;;;14.70;1.83;;;;;;;;;;5337762;26;20057;-75
2024/04/18 02:40:13;;;;;;;12.02;1.23;;;;;;;;;;5338113;26;20432;-74
2024/04/18 02:42:40;;;;;;;9.77;1.85;;;;;;;;;;5338508;26;20012;-74
2024/04/18 02:45:07;;;;;;;10.32;1.50;;;;;;;;;;5337952;26;20009;-74
2024/04/18 02:47:34;;;;;;;12.18;1.85;;;;;;;;;;5337889;26;20002;-74
2024/04/18 02:50:00;;;;;;;17.05;1.52;;;;;;;;;;5338083;26;20040;-74
2024/04/18 02:52:27;;;;;;;13.30;2.00;;;;;;;;;;5337096;26;20037;-76
2024/04/18 02:54:54;;;;;;;19.02;2.20;;;;;;;;;;5338886;26;20005;-76
2024/04/18 02:57:21;;;;;;;8.68;1.50;;;;;;;;;;5337113;26;20078;-76
2024/04/18 02:59:48;;;;;;;10.32;1.30;;;;;;;;;;5338278;26;20431;-74
2024/04/18 03:02:15;;;;;;;5.72;1.48;;;;;;;;;;5336022;26;20016;-74
2024/04/18 03:04:42;;;;;;;13.95;1.95;;;;;;;;;;5337654;26;20013;-74
2024/04/18 03:07:09;;;;;;;17.58;2.00;;;;;;;;;;5337362;26;20094;-74
2024/04/18 03:09:36;;;;;;;7.43;1.30;;;;;;;;;;5337263;26;20005;-74
2024/04/18 03:12:02;;;;;;;11.35;2.28;;;;;;;;;;5337394;26;20692;-74
2024/04/18 03:14:29;;;;;;;12.40;2.17;;;;;;;;;;5337524;26;20020;-74
2024/04/18 03:16:56;;;;;;;9.40;2.05;;;;;;;;;;5337701;26;20005;-74
2024/04/18 03:19:23;;;;;;;10.63;1.90;;;;;;;;;;5336975;26;20012;-74
2024/04/18 03:21:49;;;;;;;15.85;1.85;;;;;;;;;;5336997;26;20495;-74
2024/04/18 03:24:17;;;;;;;10.38;1.92;;;;;;;;;;5335299;26;20301;-74
2024/04/18 03:26:45;;;;;;;15.63;2.00;;;;;;;;;;5336624;26;20500;-74
2024/04/18 03:29:13;;;;;;;13.23;2.28;;;;;;;;;;5337371;26;20260;-74
2024/04/18 03:31:45;;;;;;;14.00;2.00;;;;;;;;;;5340070;26;20029;-74
2024/04/18 03:34:12;;;;;;;10.80;2.45;;;;;;;;;;5340994;26;20015;-76
2024/04/18 03:36:41;;;;;;;15.93;2.75;;;;;;;;;;5340412;26;20005;-74
2024/04/18 03:39:11;;;;;;;13.02;2.70;;;;;;;;;;5341032;26;20408;-74
2024/04/18 03:41:38;;;;;;;15.82;2.40;;;;;;;;;;5340131;26;20553;-74
2024/04/18 03:44:07;;;;;;;15.93;2.47;;;;;;;;;;5338851;26;20020;-74
2024/04/18 03:46:37;;;;;;;;;;;;;;;;;;5340606;26;20012;-75
2024/04/18 03:49:04;;;;;;;24.67;2.92;;;;;;;;;;5340520;26;19949;-76
2024/04/18 03:51:31;;;;;;;21.77;2.83;;;;;;;;;;5340452;26;20036;-76
2024/04/18 03:53:58;;;;;;;24.52;2.78;;;;;;;;;;5341314;26;20004;-74
2024/04/18 03:56:25;;;;;;;23.23;3.55;;;;;;;;;;5339778;26;20420;-74
2024/04/18 03:58:52;;;;;;;17.02;2.63;;;;;;;;;;5340796;26;20009;-74
2024/04/18 04:01:19;;;;;;;26.77;3.00;;;;;;;;;;5339508;26;20012;-76
2024/04/18 04:03:46;;;;;;;30.05;3.75;;;;;;;;;;5339660;26;20004;-74
2024/04/18 04:06:15;;;;;;;18.25;2.85;;;;;;;;;;5339586;26;20501;-76
2024/04/18 04:08:42;;;;;;;24.23;3.05;;;;;;;;;;5338018;26;20016;-77
2024/04/18 04:11:08;;;;;;;24.75;3.80;;;;;;;;;;5339519;26;20016;-77
2024/04/18 04:13:36;;;;;;;28.88;3.80;;;;;;;;;;5340495;26;20015;-74
2024/04/18 04:16:03;;;;;;;22.85;3.15;;;;;;;;;;5340758;26;20349;-76
2024/04/18 04:18:30;;;;;;;25.80;4.38;;;;;;;;;;5339891;26;20060;-76
2024/04/18 04:20:57;;;;;;;23.70;3.47;;;;;;;;;;5339946;26;20083;-74
2024/04/18 04:23:24;;;;;;;23.83;3.75;;;;;;;;;;5339963;26;20023;-74
2024/04/18 04:25:51;;;;;;;26.55;3.80;;;;;;;;;;5339227;26;20020;-75
2024/04/18 04:28:18;;;;;;;24.45;3.88;;;;;;;;;;5339986;26;20001;-76
2024/04/18 04:30:45;;;;;;;21.35;3.53;;;;;;;;;;5337810;26;20032;-76
2024/04/18 04:33:12;;;;;;;31.60;4.50;;;;;;;;;;5339854;26;20001;-77
2024/04/18 04:35:38;;;;;;;25.35;4.10;;;;;;;;;;5339531;26;20013;-76
2024/04/18 04:38:05;;;;;;;20.80;3.53;;;;;;;;;;5339362;26;20009;-77
2024/04/18 04:40:32;;;;;;;26.40;3.50;;;;;;;;;;5339032;26;20359;-78
2024/04/18 04:42:59;;;;;;;21.15;3.95;;;;;;;;;;5339062;26;20000;-76
2024/04/18 04:45:26;;;;;;;28.25;4.18;;;;;;;;;;5338888;26;20420;-76
2024/04/18 04:47:53;;;;;;;30.67;3.35;;;;;;;;;;5339884;26;20008;-76
2024/04/18 04:50:22;;;;;;;28.75;3.88;;;;;;;;;;5339534;26;20327;-76
2024/04/18 04:52:49;;;;;;;29.50;5.82;;;;;;;;;;5339609;26;20005;-74
2024/04/18 04:55:16;;;;;;;10.85;2.08;;;;;;;;;;5339475;26;20009;-74
2024/04/18 04:57:43;;;;;;;6.50;1.70;;;;;;;;;;5339531;26;20005;-74
2024/04/18 05:00:10;;;;;;;4.82;1.00;;;;;;;;;;5337822;26;20058;-74
2024/04/18 05:02:37;;;;;;;4.00;0.77;;;;;;;;;;5337597;26;20019;-74
2024/04/18 05:05:08;;;;;;;4.13;0.80;;;;;;;;;;5339528;26;20005;-74
2024/04/18 05:07:35;;;;;;;3.63;0.60;;;;;;;;;;5338839;26;20009;-74
2024/04/18 05:10:03;;;;;;;2.65;0.75;;;;;;;;;;5339291;26;20005;-74
2024/04/18 05:12:29;;;;;;;4.10;0.85;;;;;;;;;;5336933;26;20020;-74
2024/04/18 05:14:56;;;;;;;2.63;0.57;;;;;;;;;;5340306;26;20403;-74
2024/04/18 05:17:24;;;;;;;1.88;0.70;;;;;;;;;;5338168;26;20001;-75
2024/04/18 05:19:51;;;;;;;1.38;0.50;;;;;;;;;;5339463;26;20004;-75
2024/04/18 05:22:18;;;;;;;3.15;0.60;;;;;;;;;;5336493;26;20463;-75
2024/04/18 05:24:45;;;;;;;3.97;1.02;;;;;;;;;;5339200;26;20012;-75
2024/04/18 05:27:12;;;;;;;3.78;0.70;;;;;;;;;;5338660;26;20348;-75
2024/04/18 05:32:25;;;;;;;3.00;0.70;;;;;;;;;;5338316;26;20020;-75
2024/04/18 05:34:52;;;;;;;1.20;0.52;;;;;;;;;;5339363;26;20296;-75
2024/04/18 05:37:19;;;;;;;4.28;0.98;;;;;;;;;;5338869;26;20001;-75
2024/04/18 05:39:49;;;;;;;2.80;0.70;;;;;;;;;;5339811;26;20012;-75
2024/04/18 05:42:16;;;;;;;1.80;0.70;;;;;;;;;;5338432;26;20360;-75
2024/04/18 05:44:43;;;;;;;1.23;0.70;;;;;;;;;;5339215;26;20006;-75
2024/04/18 05:47:10;;;;;;;3.63;1.10;;;;;;;;;;5338561;26;20327;-75
2024/04/18 05:49:37;;;;;;;2.85;1.15;;;;;;;;;;5339088;26;20466;-75
2024/04/18 05:52:04;;;;;;;4.18;1.23;;;;;;;;;;5338662;26;20020;-75
2024/04/18 05:54:31;;;;;;;4.40;1.33;;;;;;;;;;5338536;26;20000;-75
2024/04/18 05:56:58;;;;;;;3.78;0.93;;;;;;;;;;5338829;26;20082;-75
2024/04/18 05:59:25;;;;;;;5.55;1.38;;;;;;;;;;5338550;26;20012;-75
2024/04/18 06:01:52;;;;;;;4.20;0.98;;;;;;;;;;5333654;26;20391;-75
2024/04/18 06:04:18;;;;;;;2.20;1.05;;;;;;;;;;5337471;26;20346;-75
2024/04/18 06:06:45;;;;;;;4.90;1.33;;;;;;;;;;5337974;26;20005;-75
2024/04/18 06:09:12;;;;;;;2.13;0.93;;;;;;;;;;5338559;26;20045;-76
2024/04/18 06:11:45;;;;;;;2.47;0.90;;;;;;;;;;5335996;26;20677;-75
2024/04/18 06:14:12;;;;;;;1.88;0.90;;;;;;;;;;5338937;26;20451;-75
2024/04/18 06:16:38;;;;;;;4.63;1.13;;;;;;;;;;5338214;26;20009;-75
2024/04/18 06:19:05;;;;;;;4.13;1.50;;;;;;;;;;5338851;26;20005;-75
2024/04/18 06:21:32;;;;;;;4.65;1.67;;;;;;;;;;5337861;26;20005;-76
2024/04/18 06:23:59;;;;;;;4.32;1.63;;;;;;;;;;5338700;26;20005;-75
2024/04/18 06:26:26;;;;;;;5.03;1.33;;;;;;;;;;5337316;26;20349;-75
2024/04/18 06:28:53;;;;;;;3.58;1.40;;;;;;;;;;5338935;26;20012;-75
2024/04/18 06:31:21;;;;;;;2.75;1.50;;;;;;;;;;5336011;26;20001;-76
2024/04/18 06:33:48;;;;;;;5.85;1.70;;;;;;;;;;5336720;26;20019;-75
2024/04/18 06:36:15;;;;;;;3.22;1.70;;;;;;;;;;5337268;26;20005;-76
2024/04/18 06:38:42;;;;;;;6.07;1.92;;;;;;;;;;5338640;26;20004;-76
2024/04/18 06:41:09;;;;;;;6.65;1.80;;;;;;;;;;5337683;26;20009;-75
2024/04/18 06:43:36;;;;;;;4.70;1.85;;;;;;;;;;5338449;26;20004;-75
2024/04/18 06:46:03;;;;;;;4.65;2.13;;;;;;;;;;5337758;26;20421;-75
2024/04/18 06:48:30;;;;;;;5.65;2.08;;;;;;;;;;5337671;26;20020;-75
2024/04/18 06:50:56;;;;;;;6.30;2.50;;;;;;;;;;5337766;26;20004;-76
2024/04/18 06:53:23;;;;;;;7.65;2.40;;;;;;;;;;5337748;26;20001;-76
2024/04/18 06:55:50;;;;;;;4.85;2.78;;;;;;;;;;5338029;26;20053;-76
2024/04/18 06:58:17;;;;;;;5.95;1.92;;;;;;;;;;5337757;26;20005;-75
2024/04/18 07:00:46;;;;;;;7.32;2.47;;;;;;;;;;5337280;26;20005;-75
2024/04/18 07:03:15;;;;;;;8.00;2.22;;;;;;;;;;5336075;26;20001;-76
2024/04/18 07:05:42;;;;;;;5.57;2.40;;;;;;;;;;5338877;26;20036;-76
2024/04/18 07:08:10;;;;;;;8.20;1.98;;;;;;;;;;5310387;26;20001;-76
2024/04/18 07:10:37;;;;;;;5.07;1.80;;;;;;;;;;5328985;26;20004;-76
2024/04/18 07:13:04;;;;;;;7.00;2.20;;;;;;;;;;5368959;26;20354;-76
2024/04/18 07:15:31;;;;;;;8.73;2.05;;;;;;;;;;5374046;26;20567;-76
2024/04/18 07:17:58;;;;;;;6.90;2.15;;;;;;;;;;5374323;26;20000;-76
2024/04/18 07:20:24;;;;;;;6.57;2.30;;;;;;;;;;5327814;26;20337;-76
2024/04/18 07:22:53;;;;;;;7.38;1.88;;;;;;;;;;5371010;26;20000;-76
2024/04/18 07:25:20;;;;;;;9.48;2.40;;;;;;;;;;5368374;26;20001;-74
2024/04/18 07:27:48;;;;;;;6.53;2.00;;;;;;;;;;5374088;26;20000;-75
2024/04/18 07:30:15;;;;;;;11.38;2.83;;;;;;;;;;5374168;26;20496;-75
2024/04/18 07:32:43;;;;;;;10.50;2.33;;;;;;;;;;5367427;26;20036;-78
2024/04/18 07:35:10;;;;;;;9.07;1.75;;;;;;;;;;5355493;26;20703;-76
2024/04/18 07:37:37;;;;;;;7.50;1.92;;;;;;;;;;5362900;26;20011;-77
2024/04/18 07:40:18;;;;;;;6.32;1.80;;;;;;;;;;5366895;26;20004;-76
2024/04/18 07:42:45;;;;;;;8.52;1.73;;;;;;;;;;5348144;26;20544;-76
2024/04/18 07:45:12;;;;;;;10.07;2.42;;;;;;;;;;5365638;26;20397;-76
2024/04/18 07:47:39;;;;;;;9.32;2.17;;;;;;;;;;5365439;26;20316;-76
2024/04/18 07:50:06;;;;;;;17.02;2.33;;;;;;;;;;5366271;26;20372;-76
2024/04/18 07:52:32;;;;;;;9.10;2.08;;;;;;;;;;5366059;26;20078;-76
2024/04/18 07:54:59;;;;;;;6.07;2.03;;;;;;;;;;5358153;26;20004;-76
2024/04/18 07:57:29;;;;;;;7.70;1.73;;;;;;;;;;5365473;26;20000;-76
2024/04/18 07:59:57;;;;;;;6.78;1.90;;;;;;;;;;5343534;26;20444;-76
2024/04/18 08:02:25;;;;;;;5.28;1.63;;;;;;;;;;5362853;26;20000;-76
2024/04/18 08:04:54;;;;;;;8.68;1.88;;;;;;;;;;5365027;26;20004;-76
2024/04/18 08:07:27;;;;;;;14.15;3.13;;;;;;;;;;5364400;26;20413;-76
2024/04/18 08:09:58;;;;;;;8.88;1.40;;;;;;;;;;5365381;26;20410;-76
2024/04/18 08:12:33;;;;;;;8.65;1.60;;;;;;;;;;5359273;26;20015;-76
2024/04/18 08:15:06;;;;;;;8.85;1.80;;;;;;;;;;5364719;26;20048;-76
2024/04/18 08:17:40;;;;;;;8.23;2.03;;;;;;;;;;5364218;26;20000;-76
2024/04/18 08:20:07;;;;;;;10.32;2.05;;;;;;;;;;5364968;26;20024;-75
2024/04/18 08:22:34;;;;;;;9.15;2.17;;;;;;;;;;5364379;26;20446;-80
2024/04/18 08:25:06;;;;;;;7.47;1.98;;;;;;;;;;5348670;26;20860;-79
2024/04/18 08:27:33;;;;;;;8.27;2.03;;;;;;;;;;5357723;26;20488;-76
2024/04/18 08:30:01;;;;;;;11.55;1.85;;;;;;;;;;5364879;26;19997;-75
2024/04/18 08:32:27;;;;;;;10.32;1.92;;;;;;;;;;5363946;26;20032;-76
2024/04/18 08:34:54;;;;;;;11.98;2.13;;;;;;;;;;5365048;26;20000;-76
2024/04/18 08:37:21;;;;;;;9.30;1.83;;;;;;;;;;5363937;26;20000;-76
2024/04/18 08:39:48;;;;;;;6.93;1.35;;;;;;;;;;5364783;26;20007;-76
2024/04/18 08:42:18;;;;;;;9.73;1.65;;;;;;;;;;5364342;26;20486;-76
2024/04/18 08:44:46;;;;;;;8.30;1.30;;;;;;;;;;5363975;26;20044;-75
2024/04/18 08:47:15;;;;;;;6.97;1.33;;;;;;;;;;5364561;26;20907;-75
2024/04/18 08:49:44;;;;;;;11.27;1.75;;;;;;;;;;5364214;26;20449;-76
2024/04/18 08:52:12;;;;;;;5.45;1.10;;;;;;;;;;5364185;26;20036;-76
2024/04/18 08:54:39;;;;;;;11.88;1.92;;;;;;;;;;5335826;26;20093;-75
2024/04/18 08:57:09;;;;;;;7.28;1.75;;;;;;;;;;5352872;26;20380;-75
2024/04/18 08:59:36;;;;;;;5.68;1.40;;;;;;;;;;5394201;26;20007;-75
2024/04/18 09:02:03;;;;;;;5.32;1.42;;;;;;;;;;5371372;26;19997;-79
2024/04/18 09:04:30;;;;;;;6.20;1.30;;;;;;;;;;5341118;26;20000;-76
2024/04/18 09:06:57;;;;;;;7.45;1.90;;;;;;;;;;5373379;26;20012;-76
2024/04/18 09:09:24;;;;;;;4.28;1.42;;;;;;;;;;5350009;26;20042;-77
2024/04/18 09:11:50;;;;;;;6.75;1.80;;;;;;;;;;5357729;26;20288;-76
2024/04/18 09:14:17;;;;;;;5.55;1.40;;;;;;;;;;5367405;26;20023;-76
2024/04/18 09:16:44;;;;;;;4.90;1.33;;;;;;;;;;5373923;26;19996;-76
2024/04/18 09:19:11;;;;;;;7.15;1.60;;;;;;;;;;5358595;26;20025;-76
2024/04/18 09:21:39;;;;;;;9.48;1.48;;;;;;;;;;5362038;26;20044;-76
2024/04/18 09:24:06;;;;;;;4.70;1.25;;;;;;;;;;5356676;26;20088;-76
2024/04/18 09:26:33;;;;;;;4.63;1.30;;;;;;;;;;5367783;26;20015;-76
2024/04/18 09:29:00;;;;;;;4.32;1.10;;;;;;;;;;5338912;26;20439;-76
2024/04/18 09:31:28;;;;;;;4.97;1.33;;;;;;;;;;5367052;26;20004;-76
2024/04/18 09:34:09;;;;;;;5.05;1.00;;;;;;;;;;5374167;26;20014;-76
2024/04/18 09:36:38;;;;;;;;;;;;;;;;;;5365043;26;20505;-76
2024/04/18 09:39:10;;;;;;;7.05;1.60;;;;;;;;;;5339153;26;19925;-76
2024/04/18 09:41:39;;;;;;;4.85;1.63;;;;;;;;;;5372527;26;20000;-76
2024/04/18 09:44:14;;;;;;;4.75;1.13;;;;;;;;;;5373279;26;20447;-76
2024/04/18 09:46:43;;;;;;;7.03;1.60;;;;;;;;;;5373776;26;20000;-76
2024/04/18 09:49:10;;;;;;;7.95;1.25;;;;;;;;;;5351149;26;20440;-76
2024/04/18 09:51:39;;;;;;;6.72;1.25;;;;;;;;;;5357861;26;20521;-76
2024/04/18 09:54:07;;;;;;;4.55;1.33;;;;;;;;;;5366712;26;20338;-76
2024/04/18 09:56:34;;;;;;;5.95;1.45;;;;;;;;;;5373052;26;20435;-75
2024/04/18 09:59:03;;;;;;;12.63;1.40;;;;;;;;;;5375693;26;20015;-78
2024/04/18 10:01:31;;;;;;;8.40;1.65;;;;;;;;;;5372714;26;20015;-75
2024/04/18 10:03:58;;;;;;;;;;;;;;;;;;5373064;26;20390;-75
2024/04/18 10:06:32;;;;;;;7.22;1.20;;;;;;;;;;5334150;26;19933;-74
2024/04/18 10:09:00;;;;;;;7.38;1.48;;;;;;;;;;5338381;26;20077;-76
2024/04/18 10:11:28;;;;;;;6.65;1.30;;;;;;;;;;5372596;26;20004;-77
2024/04/18 10:14:02;;;;;;;7.57;1.58;;;;;;;;;;5373138;26;20004;-78
2024/04/18 10:16:29;;;;;;;4.65;1.33;;;;;;;;;;5357461;26;20472;-75
2024/04/18 10:18:56;;;;;;;6.75;1.50;;;;;;;;;;5373227;26;20082;-75
2024/04/18 10:21:23;;;;;;;4.82;1.20;;;;;;;;;;5347920;26;20028;-75
2024/04/18 10:24:09;;;;;;;4.20;1.05;;;;;;;;;;5351918;26;20004;-75
2024/04/18 10:26:37;;;;;;;3.30;1.10;;;;;;;;;;5341746;26;20765;-75
2024/04/18 10:29:20;;;;;;;3.53;1.00;;;;;;;;;;5363494;26;20015;-75
2024/04/18 10:31:47;;;;;;;5.80;1.33;;;;;;;;;;5360079;26;20000;-75
2024/04/18 10:34:14;;;;;;;3.55;1.10;;;;;;;;;;5340075;26;20434;-75
2024/04/18 10:36:43;;;;;;;6.30;1.40;;;;;;;;;;5305774;26;20079;-75
2024/04/18 10:39:28;;;;;;;5.68;0.80;;;;;;;;;;5329157;26;20012;-75
2024/04/18 10:41:59;;;;;;;6.53;1.27;;;;;;;;;;5331856;26;20510;-74
2024/04/18 10:44:26;;;;;;;5.90;1.05;;;;;;;;;;5316515;26;20424;-75
2024/04/18 10:46:54;;;;;;;3.40;1.00;;;;;;;;;;5302688;26;20493;-75
2024/04/18 10:49:22;;;;;;;6.60;1.30;;;;;;;;;;5314840;26;20070;-75
2024/04/18 10:51:50;;;;;;;7.70;1.30;;;;;;;;;;5297557;26;20055;-75
2024/04/18 10:54:17;;;;;;;4.93;1.10;;;;;;;;;;5316153;26;20045;-75
2024/04/18 10:56:44;;;;;;;5.88;1.00;;;;;;;;;;5331484;26;20001;-75
2024/04/18 10:59:11;;;;;;;3.35;1.00;;;;;;;;;;5331671;26;20000;-75
2024/04/18 11:01:38;;;;;;;5.07;1.10;;;;;;;;;;5330489;26;20435;-75
2024/04/18 11:04:05;;;;;;;3.70;0.70;;;;;;;;;;5308210;26;20095;-75
2024/04/18 11:06:35;;;;;;;3.15;0.98;;;;;;;;;;5313347;26;20007;-75
2024/04/18 11:09:02;;;;;;;6.93;0.90;;;;;;;;;;5297531;26;20012;-75
2024/04/18 11:11:32;;;;;;;3.72;1.15;;;;;;;;;;5309433;26;20084;-75
2024/04/18 11:14:00;;;;;;;5.78;1.20;;;;;;;;;;5298081;26;19998;-75
2024/04/18 11:16:27;;;;;;;4.00;1.15;;;;;;;;;;5319309;26;20001;-75
2024/04/18 11:18:54;;;;;;;4.82;1.00;;;;;;;;;;5297242;26;20809;-75
2024/04/18 11:21:24;;;;;;;8.15;1.40;;;;;;;;;;5319474;26;20015;-75
2024/04/18 11:23:55;;;;;;;4.38;1.00;;;;;;;;;;5297686;26;20002;-75
2024/04/18 11:26:22;;;;;;;5.93;1.27;;;;;;;;;;5322676;26;20029;-75
2024/04/18 11:28:51;;;;;;;2.78;0.90;;;;;;;;;;5330731;26;20001;-75
2024/04/18 11:31:18;;;;;;;5.10;1.17;;;;;;;;;;5330727;26;20005;-75
2024/04/18 11:33:45;;;;;;;1.73;0.70;;;;;;;;;;5339558;26;20005;-75
2024/04/18 11:36:13;;;;;;;4.85;0.90;;;;;;;;;;5333884;26;20037;-75
2024/04/18 11:38:40;;;;;;;5.13;1.20;;;;;;;;;;5327545;26;20592;-75
2024/04/18 11:41:08;;;;;;;5.13;1.20;;;;;;;;;;5338512;26;20421;-75
2024/04/18 11:43:35;;;;;;;2.28;0.95;;;;;;;;;;5339131;26;20013;-75
2024/04/18 11:46:02;;;;;;;4.28;1.30;;;;;;;;;;5339203;26;20020;-75
2024/04/18 11:48:28;;;;;;;3.33;1.20;;;;;;;;;;5338471;26;20177;-75
2024/04/18 11:50:55;;;;;;;3.85;1.20;;;;;;;;;;5338076;26;20004;-75
2024/04/18 11:53:22;;;;;;;4.50;1.60;;;;;;;;;;5339049;26;20369;-75
2024/04/18 11:55:49;;;;;;;5.45;1.20;;;;;;;;;;5331322;26;20012;-75
2024/04/18 11:58:16;;;;;;;3.97;1.23;;;;;;;;;;5308276;26;20005;-75
2024/04/18 12:00:49;;;;;;;4.72;1.27;;;;;;;;;;5329967;26;20181;-75
2024/04/18 12:03:16;;;;;;;4.43;1.42;;;;;;;;;;5323088;26;20863;-75
2024/04/18 12:05:43;;;;;;;4.35;0.95;;;;;;;;;;5330327;26;20012;-75
2024/04/18 12:08:09;;;;;;;3.53;1.15;;;;;;;;;;5329895;26;20538;-75
2024/04/18 12:10:36;;;;;;;2.70;1.10;;;;;;;;;;5330092;26;20004;-75
2024/04/18 12:13:03;;;;;;;4.68;0.93;;;;;;;;;;5330540;26;20012;-75
2024/04/18 12:15:31;;;;;;;4.07;1.10;;;;;;;;;;5350262;26;20022;-75
2024/04/18 12:17:58;;;;;;;5.68;1.35;;;;;;;;;;5364521;26;20015;-75
2024/04/18 12:20:26;;;;;;;2.40;1.10;;;;;;;;;;5340813;26;20052;-75
2024/04/18 12:22:53;;;;;;;4.85;1.00;;;;;;;;;;5364605;26;20000;-75
2024/04/18 12:25:19;;;;;;;3.75;1.00;;;;;;;;;;5364123;26;20045;-76
2024/04/18 12:27:46;;;;;;;5.70;1.17;;;;;;;;;;5364830;26;20409;-76
2024/04/18 12:30:13;;;;;;;3.42;0.98;;;;;;;;;;5364364;26;20004;-75
2024/04/18 12:32:40;;;;;;;3.53;0.93;;;;;;;;;;5364318;26;20073;-75
2024/04/18 12:35:08;;;;;;;5.07;1.27;;;;;;;;;;5364701;26;20440;-76
2024/04/18 12:37:34;;;;;;;4.47;0.85;;;;;;;;;;5333256;26;20053;-77
2024/04/18 12:40:05;;;;;;;2.47;0.80;;;;;;;;;;5295622;26;20005;-78
2024/04/18 12:42:33;;;;;;;2.75;0.90;;;;;;;;;;5351700;26;20004;-75
2024/04/18 12:45:00;;;;;;;;;;;;;;;;;;5341693;26;20047;-76
2024/04/18 12:47:27;;;;;;;3.08;1.15;;;;;;;;;;5352878;26;19934;-76
2024/04/18 12:49:54;;;;;;;3.83;2.20;;;;;;;;;;5363837;26;20308;-75
2024/04/18 12:52:21;;;;;;;6.03;1.77;;;;;;;;;;5363140;26;20000;-75
2024/04/18 12:54:48;;;;;;;4.13;0.90;;;;;;;;;;5364270;26;20004;-75
2024/04/18 12:57:15;;;;;;;3.50;0.77;;;;;;;;;;5363800;26;19996;-75
2024/04/18 12:59:42;;;;;;;1.70;0.80;;;;;;;;;;5364222;26;20006;-75
2024/04/18 13:02:09;;;;;;;5.25;1.13;;;;;;;;;;5361352;26;20015;-75
2024/04/18 13:04:38;;;;;;;4.40;0.98;;;;;;;;;;5363416;26;20077;-75
2024/04/18 13:07:05;;;;;;;2.28;0.95;;;;;;;;;;5363037;26;20381;-77
2024/04/18 13:09:33;;;;;;;2.88;0.77;;;;;;;;;;5321814;26;20000;-77
2024/04/18 13:12:01;;;;;;;3.30;1.80;;;;;;;;;;5327602;26;20012;-78
2024/04/18 13:14:28;;;;;;;3.05;1.00;;;;;;;;;;5336786;26;20012;-78
2024/04/18 13:16:55;;;;;;;3.13;0.75;;;;;;;;;;5370805;26;20015;-80
2024/04/18 13:19:22;;;;;;;3.83;0.77;;;;;;;;;;5341971;26;20015;-78
2024/04/18 13:21:49;;;;;;;6.25;0.70;;;;;;;;;;5313304;26;20317;-77
2024/04/18 13:24:18;;;;;;;4.07;0.80;;;;;;;;;;5339806;26;20343;-81
2024/04/18 13:26:45;;;;;;;3.22;0.70;;;;;;;;;;5341802;26;20014;-78
2024/04/18 13:29:12;;;;;;;4.93;1.20;;;;;;;;;;5373804;26;20087;-77
2024/04/18 13:31:38;;;;;;;2.40;0.90;;;;;;;;;;5357104;26;20028;-77
2024/04/18 13:34:05;;;;;;;5.80;0.80;;;;;;;;;;5359872;26;20019;-78
2024/04/18 13:36:34;;;;;;;6.15;1.15;;;;;;;;;;5340651;26;20316;-77
2024/04/18 13:39:01;;;;;;;4.10;1.30;;;;;;;;;;5309350;26;20471;-72
2024/04/18 13:41:28;;;;;;;4.55;0.93;;;;;;;;;;5337697;26;20005;-72
2024/04/18 13:43:55;;;;;;;2.17;0.85;;;;;;;;;;5339972;26;20045;-72
2024/04/18 13:46:22;;;;;;;3.53;0.75;;;;;;;;;;5372128;26;20071;-72
2024/04/18 13:48:49;;;;;;;3.33;0.90;;;;;;;;;;5351408;26;20327;-72
2024/04/18 13:51:16;;;;;;;10.95;1.50;;;;;;;;;;5361215;26;20004;-75
2024/04/18 13:53:45;;;;;;;3.15;1.20;;;;;;;;;;5362834;26;20042;-72
2024/04/18 13:56:12;;;;;;;3.58;1.15;;;;;;;;;;5373670;26;20004;-73
2024/04/18 13:58:39;;;;;;;4.68;1.13;;;;;;;;;;5373768;26;20000;-72
2024/04/18 14:01:06;;;;;;;5.72;1.10;;;;;;;;;;5359282;26;20005;-72
2024/04/18 14:03:32;;;;;;;4.68;1.25;;;;;;;;;;5362921;26;20008;-73
2024/04/18 14:06:00;;;;;;;1.15;0.70;;;;;;;;;;5359307;26;20013;-76
2024/04/18 14:08:26;;;;;;;6.03;1.33;;;;;;;;;;5364312;26;20000;-76
2024/04/18 14:10:53;;;;;;;2.72;0.98;;;;;;;;;;5372746;26;20015;-76
2024/04/18 14:13:20;;;;;;;2.67;1.05;;;;;;;;;;5372752;26;20004;-76
2024/04/18 14:18:48;;;;;;;3.00;1.00;;;;;;;;;;5372252;26;20015;-76
2024/04/18 14:18:51;;;;;;;3.08;0.80;;;;;;;;;;5372049;26;20004;-76
2024/04/18 14:21:20;;;;;;;5.15;1.02;;;;;;;;;;5372443;26;20000;-76
2024/04/18 14:23:47;;;;;;;3.17;0.98;;;;;;;;;;5371108;26;20121;-76
2024/04/18 14:26:14;;;;;;;2.28;0.80;;;;;;;;;;5370196;26;20011;-76
2024/04/18 14:28:41;;;;;;;4.43;0.85;;;;;;;;;;5346242;26;20000;-75
2024/04/18 14:31:07;;;;;;;4.80;1.13;;;;;;;;;;5319683;26;20004;-76
2024/04/18 14:33:34;;;;;;;4.57;1.20;;;;;;;;;;5367707;26;20012;-76
2024/04/18 14:36:02;;;;;;;5.43;1.33;;;;;;;;;;5328287;26;20052;-77
2024/04/18 14:38:31;;;;;;;4.95;1.63;;;;;;;;;;5369847;26;20019;-76
2024/04/18 14:40:58;;;;;;;4.60;1.42;;;;;;;;;;5371125;26;20001;-76
2024/04/18 14:43:37;;;;;;;3.55;1.55;;;;;;;;;;5350150;26;20044;-76
2024/04/18 14:46:03;;;;;;;3.95;1.30;;;;;;;;;;5371033;26;19996;-77